sensor_id;sensor_type;location;lat;lon;timestamp;P1;durP1;ratioP1;P2;durP2;ratioP2
74689;SDS011;63221;51.860;-2.188;2023-04-09T00:02:10;10.60;;;4.72;;
74689;SDS011;63221;51.860;-2.188;2023-04-09T00:04:35;9.47;;;5.00;;
74689;SDS011;63221;51.860;-2.188;2023-04-09T00:07:01;9.00;;;4.38;;
74689;SDS011;63221;51.860;-2.188;2023-04-09T00:09:26;8.00;;;4.40;;
74689;SDS011;63221;51.860;-2.188;2023-04-09T00:11:52;9.83;;;4.77;;
74689;SDS011;63221;51.860;-2.188;2023-04-09T00:14:17;12.38;;;5.38;;
74689;SDS011;63221;51.860;-2.188;2023-04-09T00:16:43;8.83;;;4.73;;
74689;SDS011;63221;51.860;-2.188;2023-04-09T00:19:08;9.63;;;4.53;;
74689;SDS011;63221;51.860;-2.188;2023-04-09T00:21:34;10.45;;;4.55;;
74689;SDS011;63221;51.860;-2.188;2023-04-09T00:23:59;8.73;;;5.30;;
74689;SDS011;63221;51.860;-2.188;2023-04-09T00:26:25;11.47;;;5.70;;
74689;SDS011;63221;51.860;-2.188;2023-04-09T00:28:50;9.07;;;5.50;;
74689;SDS011;63221;51.860;-2.188;2023-04-09T00:31:15;9.03;;;6.33;;
74689;SDS011;63221;51.860;-2.188;2023-04-09T00:33:41;11.20;;;5.83;;
74689;SDS011;63221;51.860;-2.188;2023-04-09T00:36:06;11.90;;;6.93;;
74689;SDS011;63221;51.860;-2.188;2023-04-09T00:38:32;10.27;;;6.07;;
74689;SDS011;63221;51.860;-2.188;2023-04-09T00:40:57;9.43;;;4.85;;
74689;SDS011;63221;51.860;-2.188;2023-04-09T00:43:23;12.50;;;5.40;;
74689;SDS011;63221;51.860;-2.188;2023-04-09T00:45:48;11.87;;;5.53;;
74689;SDS011;63221;51.860;-2.188;2023-04-09T00:48:14;9.50;;;5.47;;
74689;SDS011;63221;51.860;-2.188;2023-04-09T00:50:40;8.95;;;4.43;;
74689;SDS011;63221;51.860;-2.188;2023-04-09T00:53:06;9.00;;;5.20;;
74689;SDS011;63221;51.860;-2.188;2023-04-09T00:55:32;11.67;;;5.53;;
74689;SDS011;63221;51.860;-2.188;2023-04-09T00:57:58;8.20;;;5.03;;
74689;SDS011;63221;51.860;-2.188;2023-04-09T01:00:23;12.80;;;6.27;;
74689;SDS011;63221;51.860;-2.188;2023-04-09T01:02:48;10.80;;;4.82;;
74689;SDS011;63221;51.860;-2.188;2023-04-09T01:05:16;9.23;;;4.83;;
74689;SDS011;63221;51.860;-2.188;2023-04-09T01:10:57;8.60;;;5.00;;
74689;SDS011;63221;51.860;-2.188;2023-04-09T01:13:27;10.50;;;5.05;;
74689;SDS011;63221;51.860;-2.188;2023-04-09T01:15:56;9.33;;;5.10;;
74689;SDS011;63221;51.860;-2.188;2023-04-09T01:18:42;8.85;;;4.55;;
74689;SDS011;63221;51.860;-2.188;2023-04-09T01:21:13;9.65;;;4.90;;
74689;SDS011;63221;51.860;-2.188;2023-04-09T01:29:15;8.20;;;4.70;;
74689;SDS011;63221;51.860;-2.188;2023-04-09T01:31:41;8.63;;;4.20;;
74689;SDS011;63221;51.860;-2.188;2023-04-09T01:34:07;13.32;;;5.40;;
74689;SDS011;63221;51.860;-2.188;2023-04-09T01:36:33;7.90;;;4.27;;
74689;SDS011;63221;51.860;-2.188;2023-04-09T01:39:00;8.77;;;5.03;;
74689;SDS011;63221;51.860;-2.188;2023-04-09T01:41:26;8.55;;;4.60;;
74689;SDS011;63221;51.860;-2.188;2023-04-09T01:43:52;11.75;;;5.18;;
74689;SDS011;63221;51.860;-2.188;2023-04-09T01:46:21;9.30;;;5.60;;
74689;SDS011;63221;51.860;-2.188;2023-04-09T01:48:46;8.90;;;4.53;;
74689;SDS011;63221;51.860;-2.188;2023-04-09T01:51:12;13.43;;;4.82;;
74689;SDS011;63221;51.860;-2.188;2023-04-09T01:53:38;9.80;;;4.90;;
74689;SDS011;63221;51.860;-2.188;2023-04-09T01:56:05;8.77;;;4.65;;
74689;SDS011;63221;51.860;-2.188;2023-04-09T01:58:30;10.25;;;5.25;;
74689;SDS011;63221;51.860;-2.188;2023-04-09T02:01:04;10.98;;;5.50;;
74689;SDS011;63221;51.860;-2.188;2023-04-09T02:03:38;8.47;;;4.53;;
74689;SDS011;63221;51.860;-2.188;2023-04-09T02:06:32;8.75;;;4.13;;
74689;SDS011;63221;51.860;-2.188;2023-04-09T02:09:17;9.20;;;4.55;;
74689;SDS011;63221;51.860;-2.188;2023-04-09T02:11:44;7.95;;;4.45;;
74689;SDS011;63221;51.860;-2.188;2023-04-09T02:14:10;10.40;;;4.85;;
74689;SDS011;63221;51.860;-2.188;2023-04-09T02:16:37;8.50;;;4.60;;
74689;SDS011;63221;51.860;-2.188;2023-04-09T02:19:03;12.60;;;5.05;;
74689;SDS011;63221;51.860;-2.188;2023-04-09T02:21:28;9.70;;;4.93;;
74689;SDS011;63221;51.860;-2.188;2023-04-09T02:23:54;8.20;;;4.63;;
74689;SDS011;63221;51.860;-2.188;2023-04-09T02:26:20;8.17;;;4.13;;
74689;SDS011;63221;51.860;-2.188;2023-04-09T02:28:48;8.52;;;5.05;;
74689;SDS011;63221;51.860;-2.188;2023-04-09T02:31:14;10.93;;;4.90;;
74689;SDS011;63221;51.860;-2.188;2023-04-09T02:33:39;8.00;;;4.80;;
74689;SDS011;63221;51.860;-2.188;2023-04-09T02:36:05;9.37;;;5.30;;
74689;SDS011;63221;51.860;-2.188;2023-04-09T02:38:31;8.38;;;4.60;;
74689;SDS011;63221;51.860;-2.188;2023-04-09T02:40:56;10.83;;;5.13;;
74689;SDS011;63221;51.860;-2.188;2023-04-09T02:43:22;10.82;;;4.63;;
74689;SDS011;63221;51.860;-2.188;2023-04-09T02:45:47;7.30;;;4.57;;
74689;SDS011;63221;51.860;-2.188;2023-04-09T02:48:13;9.17;;;4.63;;
74689;SDS011;63221;51.860;-2.188;2023-04-09T02:50:38;7.97;;;4.97;;
74689;SDS011;63221;51.860;-2.188;2023-04-09T02:53:04;10.07;;;5.47;;
74689;SDS011;63221;51.860;-2.188;2023-04-09T02:55:29;8.17;;;3.80;;
74689;SDS011;63221;51.860;-2.188;2023-04-09T02:57:55;9.75;;;4.88;;
74689;SDS011;63221;51.860;-2.188;2023-04-09T03:00:20;10.17;;;5.17;;
74689;SDS011;63221;51.860;-2.188;2023-04-09T03:02:46;7.60;;;4.97;;
74689;SDS011;63221;51.860;-2.188;2023-04-09T03:05:11;9.77;;;4.17;;
74689;SDS011;63221;51.860;-2.188;2023-04-09T03:07:37;9.30;;;5.18;;
74689;SDS011;63221;51.860;-2.188;2023-04-09T03:10:02;7.30;;;4.07;;
74689;SDS011;63221;51.860;-2.188;2023-04-09T03:12:28;8.90;;;4.43;;
74689;SDS011;63221;51.860;-2.188;2023-04-09T03:14:53;13.57;;;6.57;;
74689;SDS011;63221;51.860;-2.188;2023-04-09T03:17:18;10.23;;;4.80;;
74689;SDS011;63221;51.860;-2.188;2023-04-09T03:19:44;8.93;;;5.23;;
74689;SDS011;63221;51.860;-2.188;2023-04-09T03:22:09;9.00;;;4.40;;
74689;SDS011;63221;51.860;-2.188;2023-04-09T03:24:35;8.53;;;5.17;;
74689;SDS011;63221;51.860;-2.188;2023-04-09T03:27:00;10.23;;;5.20;;
74689;SDS011;63221;51.860;-2.188;2023-04-09T03:29:26;7.87;;;4.17;;
74689;SDS011;63221;51.860;-2.188;2023-04-09T03:31:51;11.43;;;4.53;;
74689;SDS011;63221;51.860;-2.188;2023-04-09T03:34:17;8.25;;;4.80;;
74689;SDS011;63221;51.860;-2.188;2023-04-09T03:36:42;10.37;;;4.83;;
74689;SDS011;63221;51.860;-2.188;2023-04-09T03:39:07;10.70;;;5.00;;
74689;SDS011;63221;51.860;-2.188;2023-04-09T03:41:33;9.17;;;5.23;;
74689;SDS011;63221;51.860;-2.188;2023-04-09T03:43:58;11.97;;;4.90;;
74689;SDS011;63221;51.860;-2.188;2023-04-09T03:46:24;9.05;;;4.28;;
74689;SDS011;63221;51.860;-2.188;2023-04-09T03:48:49;11.97;;;5.43;;
74689;SDS011;63221;51.860;-2.188;2023-04-09T03:51:15;9.10;;;5.00;;
74689;SDS011;63221;51.860;-2.188;2023-04-09T03:53:41;9.60;;;5.00;;
74689;SDS011;63221;51.860;-2.188;2023-04-09T03:56:07;9.95;;;5.30;;
74689;SDS011;63221;51.860;-2.188;2023-04-09T03:58:33;9.73;;;4.72;;
74689;SDS011;63221;51.860;-2.188;2023-04-09T04:00:58;9.27;;;4.93;;
74689;SDS011;63221;51.860;-2.188;2023-04-09T04:03:24;8.27;;;4.33;;
74689;SDS011;63221;51.860;-2.188;2023-04-09T04:05:49;11.82;;;4.35;;
74689;SDS011;63221;51.860;-2.188;2023-04-09T04:08:15;9.37;;;5.10;;
74689;SDS011;63221;51.860;-2.188;2023-04-09T04:10:40;8.60;;;4.20;;
74689;SDS011;63221;51.860;-2.188;2023-04-09T04:13:06;9.43;;;4.53;;
74689;SDS011;63221;51.860;-2.188;2023-04-09T04:15:38;8.73;;;4.50;;
74689;SDS011;63221;51.860;-2.188;2023-04-09T04:18:05;11.38;;;4.90;;
74689;SDS011;63221;51.860;-2.188;2023-04-09T04:20:33;11.27;;;4.93;;
74689;SDS011;63221;51.860;-2.188;2023-04-09T04:22:59;8.15;;;4.45;;
74689;SDS011;63221;51.860;-2.188;2023-04-09T04:25:25;9.50;;;4.37;;
74689;SDS011;63221;51.860;-2.188;2023-04-09T04:27:50;10.77;;;4.97;;
74689;SDS011;63221;51.860;-2.188;2023-04-09T04:30:15;9.80;;;4.83;;
74689;SDS011;63221;51.860;-2.188;2023-04-09T04:32:41;10.80;;;5.18;;
74689;SDS011;63221;51.860;-2.188;2023-04-09T04:35:06;11.10;;;4.40;;
74689;SDS011;63221;51.860;-2.188;2023-04-09T04:37:32;11.55;;;5.57;;
74689;SDS011;63221;51.860;-2.188;2023-04-09T04:39:59;9.30;;;4.43;;
74689;SDS011;63221;51.860;-2.188;2023-04-09T04:42:25;10.60;;;4.68;;
74689;SDS011;63221;51.860;-2.188;2023-04-09T04:44:51;10.90;;;4.90;;
74689;SDS011;63221;51.860;-2.188;2023-04-09T04:47:16;11.40;;;5.37;;
74689;SDS011;63221;51.860;-2.188;2023-04-09T04:49:43;8.82;;;5.20;;
74689;SDS011;63221;51.860;-2.188;2023-04-09T04:52:08;11.03;;;5.43;;
74689;SDS011;63221;51.860;-2.188;2023-04-09T04:54:34;11.57;;;5.93;;
74689;SDS011;63221;51.860;-2.188;2023-04-09T04:56:59;10.52;;;4.93;;
74689;SDS011;63221;51.860;-2.188;2023-04-09T04:59:25;12.50;;;5.40;;
74689;SDS011;63221;51.860;-2.188;2023-04-09T05:01:50;10.98;;;4.88;;
74689;SDS011;63221;51.860;-2.188;2023-04-09T05:04:16;13.17;;;6.47;;
74689;SDS011;63221;51.860;-2.188;2023-04-09T05:06:41;11.10;;;5.97;;
74689;SDS011;63221;51.860;-2.188;2023-04-09T05:09:07;15.83;;;6.27;;
74689;SDS011;63221;51.860;-2.188;2023-04-09T05:11:32;10.10;;;5.73;;
74689;SDS011;63221;51.860;-2.188;2023-04-09T05:13:57;12.13;;;5.78;;
74689;SDS011;63221;51.860;-2.188;2023-04-09T05:16:23;12.63;;;5.73;;
74689;SDS011;63221;51.860;-2.188;2023-04-09T05:18:48;15.30;;;8.00;;
74689;SDS011;63221;51.860;-2.188;2023-04-09T05:21:14;16.00;;;6.77;;
74689;SDS011;63221;51.860;-2.188;2023-04-09T05:23:39;12.93;;;6.37;;
74689;SDS011;63221;51.860;-2.188;2023-04-09T05:26:04;13.65;;;6.55;;
74689;SDS011;63221;51.860;-2.188;2023-04-09T05:28:30;16.43;;;7.67;;
74689;SDS011;63221;51.860;-2.188;2023-04-09T05:30:55;16.53;;;7.57;;
74689;SDS011;63221;51.860;-2.188;2023-04-09T05:33:21;18.47;;;6.47;;
74689;SDS011;63221;51.860;-2.188;2023-04-09T05:35:46;16.63;;;7.77;;
74689;SDS011;63221;51.860;-2.188;2023-04-09T05:38:11;13.77;;;6.67;;
74689;SDS011;63221;51.860;-2.188;2023-04-09T05:40:40;14.90;;;6.68;;
74689;SDS011;63221;51.860;-2.188;2023-04-09T05:43:06;14.83;;;7.07;;
74689;SDS011;63221;51.860;-2.188;2023-04-09T05:45:32;14.32;;;6.22;;
74689;SDS011;63221;51.860;-2.188;2023-04-09T05:47:57;18.90;;;7.07;;
74689;SDS011;63221;51.860;-2.188;2023-04-09T05:50:22;16.57;;;8.23;;
74689;SDS011;63221;51.860;-2.188;2023-04-09T05:52:48;17.13;;;7.15;;
74689;SDS011;63221;51.860;-2.188;2023-04-09T05:55:13;15.33;;;6.93;;
74689;SDS011;63221;51.860;-2.188;2023-04-09T05:57:39;17.33;;;6.77;;
74689;SDS011;63221;51.860;-2.188;2023-04-09T06:00:05;15.50;;;6.38;;
74689;SDS011;63221;51.860;-2.188;2023-04-09T06:02:32;16.65;;;8.88;;
74689;SDS011;63221;51.860;-2.188;2023-04-09T06:04:57;16.47;;;6.73;;
74689;SDS011;63221;51.860;-2.188;2023-04-09T06:07:23;16.42;;;6.28;;
74689;SDS011;63221;51.860;-2.188;2023-04-09T06:09:48;17.93;;;7.17;;
74689;SDS011;63221;51.860;-2.188;2023-04-09T06:12:14;17.17;;;8.73;;
74689;SDS011;63221;51.860;-2.188;2023-04-09T06:14:39;18.20;;;7.28;;
74689;SDS011;63221;51.860;-2.188;2023-04-09T06:17:05;17.53;;;7.80;;
74689;SDS011;63221;51.860;-2.188;2023-04-09T06:19:30;16.07;;;7.83;;
74689;SDS011;63221;51.860;-2.188;2023-04-09T06:21:56;15.57;;;8.32;;
74689;SDS011;63221;51.860;-2.188;2023-04-09T06:24:21;13.23;;;6.97;;
74689;SDS011;63221;51.860;-2.188;2023-04-09T06:26:47;17.83;;;8.23;;
74689;SDS011;63221;51.860;-2.188;2023-04-09T06:29:13;16.80;;;7.53;;
74689;SDS011;63221;51.860;-2.188;2023-04-09T06:31:38;22.40;;;9.47;;
74689;SDS011;63221;51.860;-2.188;2023-04-09T06:34:03;20.20;;;8.43;;
74689;SDS011;63221;51.860;-2.188;2023-04-09T06:36:29;16.77;;;8.90;;
74689;SDS011;63221;51.860;-2.188;2023-04-09T06:38:54;17.93;;;8.80;;
74689;SDS011;63221;51.860;-2.188;2023-04-09T06:41:20;23.77;;;10.33;;
74689;SDS011;63221;51.860;-2.188;2023-04-09T06:43:46;22.92;;;11.40;;
74689;SDS011;63221;51.860;-2.188;2023-04-09T06:46:12;18.67;;;9.50;;
74689;SDS011;63221;51.860;-2.188;2023-04-09T06:48:41;21.80;;;9.33;;
74689;SDS011;63221;51.860;-2.188;2023-04-09T06:51:08;25.77;;;10.57;;
74689;SDS011;63221;51.860;-2.188;2023-04-09T06:53:34;25.15;;;10.60;;
74689;SDS011;63221;51.860;-2.188;2023-04-09T06:55:59;25.57;;;11.13;;
74689;SDS011;63221;51.860;-2.188;2023-04-09T06:58:25;21.77;;;11.63;;
74689;SDS011;63221;51.860;-2.188;2023-04-09T07:00:50;26.40;;;12.07;;
74689;SDS011;63221;51.860;-2.188;2023-04-09T07:03:16;24.67;;;12.67;;
74689;SDS011;63221;51.860;-2.188;2023-04-09T07:05:41;31.23;;;12.40;;
74689;SDS011;63221;51.860;-2.188;2023-04-09T07:08:07;25.83;;;11.43;;
74689;SDS011;63221;51.860;-2.188;2023-04-09T07:10:32;24.90;;;11.10;;
74689;SDS011;63221;51.860;-2.188;2023-04-09T07:12:58;28.70;;;11.73;;
74689;SDS011;63221;51.860;-2.188;2023-04-09T07:15:23;25.90;;;11.83;;
74689;SDS011;63221;51.860;-2.188;2023-04-09T07:17:48;27.17;;;12.23;;
74689;SDS011;63221;51.860;-2.188;2023-04-09T07:20:14;24.00;;;11.50;;
74689;SDS011;63221;51.860;-2.188;2023-04-09T07:22:39;25.20;;;11.07;;
74689;SDS011;63221;51.860;-2.188;2023-04-09T07:25:05;25.77;;;11.82;;
74689;SDS011;63221;51.860;-2.188;2023-04-09T07:27:31;21.97;;;11.07;;
74689;SDS011;63221;51.860;-2.188;2023-04-09T07:29:57;26.73;;;10.18;;
74689;SDS011;63221;51.860;-2.188;2023-04-09T07:32:23;27.50;;;12.30;;
74689;SDS011;63221;51.860;-2.188;2023-04-09T07:34:51;27.27;;;12.67;;
74689;SDS011;63221;51.860;-2.188;2023-04-09T07:37:17;28.23;;;11.88;;
74689;SDS011;63221;51.860;-2.188;2023-04-09T07:39:42;29.60;;;12.38;;
74689;SDS011;63221;51.860;-2.188;2023-04-09T07:42:08;25.40;;;12.23;;
74689;SDS011;63221;51.860;-2.188;2023-04-09T07:44:34;25.83;;;11.60;;
74689;SDS011;63221;51.860;-2.188;2023-04-09T07:47:01;27.00;;;12.38;;
74689;SDS011;63221;51.860;-2.188;2023-04-09T07:49:27;30.80;;;13.05;;
74689;SDS011;63221;51.860;-2.188;2023-04-09T07:51:53;31.97;;;12.43;;
74689;SDS011;63221;51.860;-2.188;2023-04-09T07:54:18;31.20;;;12.60;;
74689;SDS011;63221;51.860;-2.188;2023-04-09T07:56:45;24.58;;;10.77;;
74689;SDS011;63221;51.860;-2.188;2023-04-09T07:59:11;31.13;;;12.68;;
74689;SDS011;63221;51.860;-2.188;2023-04-09T08:01:36;30.37;;;13.70;;
74689;SDS011;63221;51.860;-2.188;2023-04-09T08:04:01;29.97;;;12.67;;
74689;SDS011;63221;51.860;-2.188;2023-04-09T08:06:27;30.75;;;13.00;;
74689;SDS011;63221;51.860;-2.188;2023-04-09T08:08:53;30.43;;;13.57;;
74689;SDS011;63221;51.860;-2.188;2023-04-09T08:11:18;33.37;;;12.57;;
74689;SDS011;63221;51.860;-2.188;2023-04-09T08:13:49;27.67;;;12.07;;
74689;SDS011;63221;51.860;-2.188;2023-04-09T08:16:16;32.05;;;12.77;;
74689;SDS011;63221;51.860;-2.188;2023-04-09T08:18:41;27.27;;;11.37;;
74689;SDS011;63221;51.860;-2.188;2023-04-09T08:21:06;28.97;;;13.87;;
74689;SDS011;63221;51.860;-2.188;2023-04-09T08:23:32;27.00;;;11.13;;
74689;SDS011;63221;51.860;-2.188;2023-04-09T08:25:57;28.17;;;11.07;;
74689;SDS011;63221;51.860;-2.188;2023-04-09T08:28:23;30.50;;;12.03;;
74689;SDS011;63221;51.860;-2.188;2023-04-09T08:30:48;27.63;;;12.40;;
74689;SDS011;63221;51.860;-2.188;2023-04-09T08:33:14;31.52;;;13.65;;
74689;SDS011;63221;51.860;-2.188;2023-04-09T08:35:40;32.60;;;12.60;;
74689;SDS011;63221;51.860;-2.188;2023-04-09T08:38:06;27.20;;;12.23;;
74689;SDS011;63221;51.860;-2.188;2023-04-09T08:40:35;30.47;;;11.27;;
74689;SDS011;63221;51.860;-2.188;2023-04-09T08:43:02;24.20;;;11.60;;
74689;SDS011;63221;51.860;-2.188;2023-04-09T08:45:29;28.08;;;12.23;;
74689;SDS011;63221;51.860;-2.188;2023-04-09T08:47:54;25.53;;;12.20;;
74689;SDS011;63221;51.860;-2.188;2023-04-09T08:50:23;27.05;;;12.68;;
74689;SDS011;63221;51.860;-2.188;2023-04-09T08:52:49;26.55;;;13.18;;
74689;SDS011;63221;51.860;-2.188;2023-04-09T08:55:15;28.93;;;12.83;;
74689;SDS011;63221;51.860;-2.188;2023-04-09T08:57:40;28.57;;;11.87;;
74689;SDS011;63221;51.860;-2.188;2023-04-09T09:00:06;27.00;;;11.80;;
74689;SDS011;63221;51.860;-2.188;2023-04-09T09:02:33;29.58;;;12.10;;
74689;SDS011;63221;51.860;-2.188;2023-04-09T09:04:58;31.33;;;12.97;;
74689;SDS011;63221;51.860;-2.188;2023-04-09T09:07:26;27.45;;;12.98;;
74689;SDS011;63221;51.860;-2.188;2023-04-09T09:09:56;27.17;;;12.25;;
74689;SDS011;63221;51.860;-2.188;2023-04-09T09:15:05;26.85;;;11.60;;
74689;SDS011;63221;51.860;-2.188;2023-04-09T09:17:57;24.77;;;11.60;;
74689;SDS011;63221;51.860;-2.188;2023-04-09T09:20:24;28.42;;;11.93;;
74689;SDS011;63221;51.860;-2.188;2023-04-09T09:22:51;27.45;;;13.60;;
74689;SDS011;63221;51.860;-2.188;2023-04-09T09:25:17;25.52;;;11.95;;
74689;SDS011;63221;51.860;-2.188;2023-04-09T09:27:47;24.90;;;11.30;;
74689;SDS011;63221;51.860;-2.188;2023-04-09T09:30:19;24.93;;;11.63;;
74689;SDS011;63221;51.860;-2.188;2023-04-09T09:32:52;28.02;;;11.15;;
74689;SDS011;63221;51.860;-2.188;2023-04-09T09:35:18;27.60;;;12.88;;
74689;SDS011;63221;51.860;-2.188;2023-04-09T09:37:44;22.40;;;10.27;;
74689;SDS011;63221;51.860;-2.188;2023-04-09T09:40:09;30.30;;;11.50;;
74689;SDS011;63221;51.860;-2.188;2023-04-09T09:42:35;28.33;;;11.63;;
74689;SDS011;63221;51.860;-2.188;2023-04-09T09:45:01;26.83;;;12.73;;
74689;SDS011;63221;51.860;-2.188;2023-04-09T09:47:30;24.42;;;11.30;;
74689;SDS011;63221;51.860;-2.188;2023-04-09T09:49:55;24.73;;;11.80;;
74689;SDS011;63221;51.860;-2.188;2023-04-09T09:52:24;26.93;;;12.10;;
74689;SDS011;63221;51.860;-2.188;2023-04-09T09:54:54;26.40;;;13.43;;
74689;SDS011;63221;51.860;-2.188;2023-04-09T09:57:20;28.67;;;11.80;;
74689;SDS011;63221;51.860;-2.188;2023-04-09T09:59:53;27.85;;;13.05;;
74689;SDS011;63221;51.860;-2.188;2023-04-09T10:02:23;22.58;;;12.10;;
74689;SDS011;63221;51.860;-2.188;2023-04-09T10:04:51;24.80;;;11.48;;
74689;SDS011;63221;51.860;-2.188;2023-04-09T10:07:16;26.67;;;12.37;;
74689;SDS011;63221;51.860;-2.188;2023-04-09T10:09:44;22.98;;;11.73;;
74689;SDS011;63221;51.860;-2.188;2023-04-09T10:12:15;24.75;;;11.77;;
74689;SDS011;63221;51.860;-2.188;2023-04-09T10:14:41;24.38;;;11.57;;
74689;SDS011;63221;51.860;-2.188;2023-04-09T10:17:07;22.87;;;11.93;;
74689;SDS011;63221;51.860;-2.188;2023-04-09T10:19:34;26.55;;;11.68;;
74689;SDS011;63221;51.860;-2.188;2023-04-09T10:22:08;29.25;;;12.00;;
74689;SDS011;63221;51.860;-2.188;2023-04-09T10:24:35;28.17;;;11.47;;
74689;SDS011;63221;51.860;-2.188;2023-04-09T10:27:10;25.42;;;12.40;;
74689;SDS011;63221;51.860;-2.188;2023-04-09T10:29:44;24.33;;;12.48;;
74689;SDS011;63221;51.860;-2.188;2023-04-09T10:32:11;25.27;;;13.50;;
74689;SDS011;63221;51.860;-2.188;2023-04-09T10:34:41;23.95;;;11.95;;
74689;SDS011;63221;51.860;-2.188;2023-04-09T10:37:15;23.33;;;10.93;;
74689;SDS011;63221;51.860;-2.188;2023-04-09T10:39:45;23.48;;;11.65;;
74689;SDS011;63221;51.860;-2.188;2023-04-09T10:42:17;26.13;;;12.05;;
74689;SDS011;63221;51.860;-2.188;2023-04-09T10:44:46;23.20;;;11.23;;
74689;SDS011;63221;51.860;-2.188;2023-04-09T10:47:14;28.20;;;13.25;;
74689;SDS011;63221;51.860;-2.188;2023-04-09T10:49:56;22.93;;;11.03;;
74689;SDS011;63221;51.860;-2.188;2023-04-09T10:52:21;25.45;;;12.07;;
74689;SDS011;63221;51.860;-2.188;2023-04-09T10:54:54;23.50;;;10.97;;
74689;SDS011;63221;51.860;-2.188;2023-04-09T10:57:20;21.70;;;11.40;;
74689;SDS011;63221;51.860;-2.188;2023-04-09T10:59:50;25.13;;;11.55;;
74689;SDS011;63221;51.860;-2.188;2023-04-09T11:07:46;22.42;;;11.07;;
74689;SDS011;63221;51.860;-2.188;2023-04-09T11:10:19;23.60;;;12.32;;
74689;SDS011;63221;51.860;-2.188;2023-04-09T11:12:46;24.48;;;11.68;;
74689;SDS011;63221;51.860;-2.188;2023-04-09T11:15:16;27.30;;;12.88;;
74689;SDS011;63221;51.860;-2.188;2023-04-09T11:17:42;23.33;;;11.30;;
74689;SDS011;63221;51.860;-2.188;2023-04-09T11:20:09;24.13;;;11.90;;
74689;SDS011;63221;51.860;-2.188;2023-04-09T11:22:35;25.63;;;13.95;;
74689;SDS011;63221;51.860;-2.188;2023-04-09T11:25:00;24.43;;;12.20;;
74689;SDS011;63221;51.860;-2.188;2023-04-09T11:27:26;21.77;;;11.98;;
74689;SDS011;63221;51.860;-2.188;2023-04-09T11:29:54;23.03;;;12.50;;
74689;SDS011;63221;51.860;-2.188;2023-04-09T11:32:20;23.90;;;12.38;;
74689;SDS011;63221;51.860;-2.188;2023-04-09T11:34:45;22.13;;;11.40;;
74689;SDS011;63221;51.860;-2.188;2023-04-09T11:37:14;25.40;;;12.87;;
74689;SDS011;63221;51.860;-2.188;2023-04-09T11:39:43;22.85;;;12.73;;
74689;SDS011;63221;51.860;-2.188;2023-04-09T11:42:13;24.58;;;13.00;;
74689;SDS011;63221;51.860;-2.188;2023-04-09T11:44:38;26.63;;;13.70;;
74689;SDS011;63221;51.860;-2.188;2023-04-09T11:47:05;25.30;;;13.37;;
74689;SDS011;63221;51.860;-2.188;2023-04-09T11:49:31;20.80;;;11.43;;
74689;SDS011;63221;51.860;-2.188;2023-04-09T11:51:56;21.30;;;12.60;;
74689;SDS011;63221;51.860;-2.188;2023-04-09T11:54:22;21.93;;;11.77;;
74689;SDS011;63221;51.860;-2.188;2023-04-09T11:56:48;18.30;;;10.87;;
74689;SDS011;63221;51.860;-2.188;2023-04-09T11:59:19;20.15;;;11.38;;
74689;SDS011;63221;51.860;-2.188;2023-04-09T12:01:48;20.42;;;11.57;;
74689;SDS011;63221;51.860;-2.188;2023-04-09T12:04:18;21.35;;;12.75;;
74689;SDS011;63221;51.860;-2.188;2023-04-09T12:06:46;23.60;;;11.97;;
74689;SDS011;63221;51.860;-2.188;2023-04-09T12:09:12;25.67;;;13.52;;
74689;SDS011;63221;51.860;-2.188;2023-04-09T12:11:38;18.90;;;11.00;;
74689;SDS011;63221;51.860;-2.188;2023-04-09T12:14:10;19.88;;;10.77;;
74689;SDS011;63221;51.860;-2.188;2023-04-09T12:16:40;17.85;;;9.73;;
74689;SDS011;63221;51.860;-2.188;2023-04-09T12:19:08;16.05;;;9.68;;
74689;SDS011;63221;51.860;-2.188;2023-04-09T12:21:54;14.83;;;9.40;;
74689;SDS011;63221;51.860;-2.188;2023-04-09T12:24:21;16.10;;;8.88;;
74689;SDS011;63221;51.860;-2.188;2023-04-09T12:26:48;19.95;;;9.43;;
74689;SDS011;63221;51.860;-2.188;2023-04-09T12:29:14;25.98;;;9.73;;
74689;SDS011;63221;51.860;-2.188;2023-04-09T12:31:40;17.88;;;10.07;;
74689;SDS011;63221;51.860;-2.188;2023-04-09T12:34:06;18.77;;;9.03;;
74689;SDS011;63221;51.860;-2.188;2023-04-09T12:36:32;17.25;;;9.52;;
74689;SDS011;63221;51.860;-2.188;2023-04-09T12:38:57;15.43;;;9.30;;
74689;SDS011;63221;51.860;-2.188;2023-04-09T12:41:23;15.87;;;9.37;;
74689;SDS011;63221;51.860;-2.188;2023-04-09T12:43:48;17.93;;;10.20;;
74689;SDS011;63221;51.860;-2.188;2023-04-09T12:46:14;12.30;;;7.03;;
74689;SDS011;63221;51.860;-2.188;2023-04-09T12:48:39;14.80;;;8.53;;
74689;SDS011;63221;51.860;-2.188;2023-04-09T12:51:05;13.63;;;8.02;;
74689;SDS011;63221;51.860;-2.188;2023-04-09T12:53:31;12.17;;;8.17;;
74689;SDS011;63221;51.860;-2.188;2023-04-09T12:55:56;15.43;;;8.07;;
74689;SDS011;63221;51.860;-2.188;2023-04-09T12:58:22;13.37;;;7.50;;
74689;SDS011;63221;51.860;-2.188;2023-04-09T13:00:48;12.38;;;7.65;;
74689;SDS011;63221;51.860;-2.188;2023-04-09T13:03:13;13.80;;;6.60;;
74689;SDS011;63221;51.860;-2.188;2023-04-09T13:05:42;11.60;;;6.75;;
74689;SDS011;63221;51.860;-2.188;2023-04-09T13:08:07;13.30;;;7.83;;
74689;SDS011;63221;51.860;-2.188;2023-04-09T13:10:33;12.65;;;6.97;;
74689;SDS011;63221;51.860;-2.188;2023-04-09T13:12:58;13.67;;;6.90;;
74689;SDS011;63221;51.860;-2.188;2023-04-09T13:15:23;13.50;;;6.83;;
74689;SDS011;63221;51.860;-2.188;2023-04-09T13:17:49;9.70;;;6.27;;
74689;SDS011;63221;51.860;-2.188;2023-04-09T13:20:14;10.57;;;5.88;;
74689;SDS011;63221;51.860;-2.188;2023-04-09T13:22:40;8.93;;;5.20;;
74689;SDS011;63221;51.860;-2.188;2023-04-09T13:25:05;9.60;;;5.90;;
74689;SDS011;63221;51.860;-2.188;2023-04-09T13:27:31;12.50;;;6.70;;
74689;SDS011;63221;51.860;-2.188;2023-04-09T13:29:56;11.13;;;6.60;;
74689;SDS011;63221;51.860;-2.188;2023-04-09T13:32:22;9.83;;;5.60;;
74689;SDS011;63221;51.860;-2.188;2023-04-09T13:34:48;10.05;;;6.20;;
74689;SDS011;63221;51.860;-2.188;2023-04-09T13:37:13;7.37;;;4.90;;
74689;SDS011;63221;51.860;-2.188;2023-04-09T13:39:39;8.30;;;4.80;;
74689;SDS011;63221;51.860;-2.188;2023-04-09T13:42:05;8.80;;;4.90;;
74689;SDS011;63221;51.860;-2.188;2023-04-09T13:44:30;6.38;;;4.10;;
74689;SDS011;63221;51.860;-2.188;2023-04-09T13:46:56;7.97;;;4.67;;
74689;SDS011;63221;51.860;-2.188;2023-04-09T13:49:22;7.10;;;4.30;;
74689;SDS011;63221;51.860;-2.188;2023-04-09T13:51:48;5.37;;;3.80;;
74689;SDS011;63221;51.860;-2.188;2023-04-09T13:54:13;8.75;;;4.38;;
74689;SDS011;63221;51.860;-2.188;2023-04-09T13:56:39;7.70;;;4.60;;
74689;SDS011;63221;51.860;-2.188;2023-04-09T13:59:05;6.88;;;3.63;;
74689;SDS011;63221;51.860;-2.188;2023-04-09T14:01:30;7.13;;;4.23;;
74689;SDS011;63221;51.860;-2.188;2023-04-09T14:03:56;8.80;;;4.13;;
74689;SDS011;63221;51.860;-2.188;2023-04-09T14:06:21;8.02;;;4.63;;
74689;SDS011;63221;51.860;-2.188;2023-04-09T14:08:47;7.17;;;3.50;;
74689;SDS011;63221;51.860;-2.188;2023-04-09T14:11:12;6.97;;;3.70;;
74689;SDS011;63221;51.860;-2.188;2023-04-09T14:13:39;6.20;;;3.88;;
74689;SDS011;63221;51.860;-2.188;2023-04-09T14:16:05;5.90;;;3.87;;
74689;SDS011;63221;51.860;-2.188;2023-04-09T14:18:31;5.97;;;3.60;;
74689;SDS011;63221;51.860;-2.188;2023-04-09T14:20:57;7.07;;;3.93;;
74689;SDS011;63221;51.860;-2.188;2023-04-09T14:23:24;5.90;;;3.50;;
74689;SDS011;63221;51.860;-2.188;2023-04-09T14:25:50;7.38;;;4.15;;
74689;SDS011;63221;51.860;-2.188;2023-04-09T14:28:16;8.18;;;4.15;;
74689;SDS011;63221;51.860;-2.188;2023-04-09T14:30:41;6.27;;;3.80;;
74689;SDS011;63221;51.860;-2.188;2023-04-09T14:33:07;8.75;;;3.33;;
74689;SDS011;63221;51.860;-2.188;2023-04-09T14:35:32;5.70;;;2.80;;